createdAt,value
2019-01-31T00:03:26.749Z,3.70
2019-01-31T00:07:45.258Z,3.60
2019-01-31T00:11:57.809Z,3.30
2019-01-31T00:16:13.311Z,2.70
2019-01-31T00:20:27.979Z,2.40
2019-01-31T00:24:37.391Z,2.93
2019-01-31T00:29:01.979Z,2.73
2019-01-31T00:33:25.858Z,2.60
2019-01-31T00:37:47.159Z,2.87
2019-01-31T00:41:59.487Z,2.97
2019-01-31T00:46:14.728Z,3.30
2019-01-31T00:50:23.810Z,2.93
2019-01-31T00:54:30.405Z,3.10
2019-01-31T00:58:36.895Z,3.23
2019-01-31T01:02:46.307Z,3.43
2019-01-31T01:07:13.531Z,3.30
2019-01-31T01:11:25.587Z,4.00
2019-01-31T01:15:41.107Z,2.93
2019-01-31T01:19:58.807Z,3.23
2019-01-31T01:24:08.100Z,3.47
2019-01-31T01:28:14.594Z,4.13
2019-01-31T01:32:39.022Z,4.30
2019-01-31T01:36:57.287Z,3.70
2019-01-31T01:41:09.376Z,3.70
2019-01-31T01:45:27.696Z,4.83
2019-01-31T01:49:37.030Z,4.13
2019-01-31T01:53:52.518Z,3.90
2019-01-31T01:58:20.040Z,3.30
2019-01-31T02:02:56.449Z,3.60
2019-01-31T02:07:19.420Z,3.50
2019-01-31T02:11:59.525Z,3.50
2019-01-31T02:16:29.323Z,4.10
2019-01-31T02:20:44.402Z,3.60
2019-01-31T02:25:17.450Z,4.07
2019-01-31T02:29:26.711Z,3.77
2019-01-31T02:33:48.225Z,4.23
2019-01-31T02:38:06.616Z,3.73
2019-01-31T02:42:34.282Z,4.20
2019-01-31T02:46:58.031Z,3.73
2019-01-31T02:51:20.964Z,3.90
2019-01-31T02:55:27.483Z,3.70
2019-01-31T02:59:36.988Z,3.57
2019-01-31T03:04:12.200Z,3.77
2019-01-31T03:08:30.992Z,4.10
2019-01-31T03:12:40.295Z,4.23
2019-01-31T03:17:10.948Z,4.00
2019-01-31T03:21:36.806Z,3.53
2019-01-31T03:25:49.241Z,3.33
2019-01-31T03:30:27.235Z,3.33
2019-01-31T03:34:45.408Z,3.40
2019-01-31T03:39:13.811Z,3.60
2019-01-31T03:43:23.323Z,3.20
2019-01-31T03:47:35.580Z,3.33
2019-01-31T03:51:47.979Z,3.33
2019-01-31T03:56:03.217Z,5.47
2019-01-31T04:00:32.237Z,3.47
2019-01-31T04:04:41.666Z,3.23
2019-01-31T04:08:45.087Z,3.30
2019-01-31T04:12:48.520Z,3.33
2019-01-31T04:16:52.583Z,3.30
2019-01-31T04:20:56.016Z,2.77
2019-01-31T04:24:59.439Z,3.03
2019-01-31T04:29:02.856Z,3.20
2019-01-31T04:33:06.329Z,3.10
2019-01-31T04:37:09.749Z,3.50
2019-01-31T04:41:13.663Z,3.30
2019-01-31T04:45:17.168Z,3.20
2019-01-31T04:49:20.583Z,3.17
2019-01-31T04:53:24.006Z,3.20
2019-01-31T04:57:27.440Z,3.30
2019-01-31T05:01:30.992Z,3.50
2019-01-31T05:05:34.462Z,3.20
2019-01-31T05:09:37.892Z,3.70
2019-01-31T05:13:41.339Z,3.80
2019-01-31T05:17:44.797Z,3.50
2019-01-31T05:21:48.281Z,3.70
2019-01-31T05:25:51.695Z,3.43
2019-01-31T05:29:55.126Z,3.90
2019-01-31T05:33:58.564Z,3.80
2019-01-31T05:38:01.983Z,4.27
2019-01-31T05:42:05.480Z,11.43
2019-01-31T05:46:08.915Z,12.27
2019-01-31T05:50:14.691Z,3.93
2019-01-31T05:54:18.115Z,4.17
2019-01-31T05:58:21.579Z,4.27
2019-01-31T06:02:25.071Z,4.90
2019-01-31T06:06:28.496Z,15.20
2019-01-31T06:10:33.721Z,4.90
2019-01-31T06:14:37.083Z,4.40
2019-01-31T06:18:40.544Z,4.03
2019-01-31T06:22:43.961Z,4.47
2019-01-31T06:26:47.423Z,4.17
2019-01-31T06:30:50.904Z,4.80
2019-01-31T06:34:54.350Z,5.73
2019-01-31T06:38:57.774Z,4.77
2019-01-31T06:43:01.200Z,4.23
2019-01-31T06:47:04.706Z,5.00
2019-01-31T06:51:08.231Z,5.10
2019-01-31T06:55:12.722Z,5.20
2019-01-31T06:59:16.151Z,4.80
2019-01-31T07:03:19.572Z,4.77
2019-01-31T07:07:23.020Z,6.33
2019-01-31T07:11:30.066Z,13.00
2019-01-31T07:15:31.711Z,10.47
2019-01-31T07:19:35.138Z,8.23
2019-01-31T07:23:38.563Z,5.93
2019-01-31T07:27:42.001Z,5.07
2019-01-31T07:31:45.441Z,4.60
2019-01-31T07:35:51.936Z,4.93
2019-01-31T07:39:54.033Z,5.20
2019-01-31T07:43:57.448Z,4.83
2019-01-31T07:48:00.895Z,5.17
2019-01-31T07:52:04.339Z,5.40
2019-01-31T07:56:07.768Z,6.77
2019-01-31T08:00:19.667Z,6.03
2019-01-31T08:04:23.103Z,5.60
2019-01-31T08:08:26.530Z,5.53
2019-01-31T08:12:29.969Z,5.50
2019-01-31T08:16:33.459Z,7.40
2019-01-31T08:20:36.938Z,5.60
2019-01-31T08:24:40.375Z,4.97
2019-01-31T08:28:43.802Z,5.10
2019-01-31T08:32:47.316Z,5.40
2019-01-31T08:36:50.744Z,6.87
2019-01-31T08:40:54.319Z,5.23
2019-01-31T08:44:57.774Z,5.33
2019-01-31T08:49:01.268Z,5.03
2019-01-31T08:53:04.767Z,4.50
2019-01-31T08:57:08.280Z,6.03
2019-01-31T09:01:11.706Z,5.30
2019-01-31T09:05:15.303Z,4.60
2019-01-31T09:09:18.806Z,5.17
2019-01-31T09:13:22.862Z,4.47
2019-01-31T09:17:26.341Z,4.80
2019-01-31T09:21:32.811Z,4.40
2019-01-31T09:25:41.928Z,4.50
2019-01-31T09:29:51.240Z,5.57
2019-01-31T09:34:09.300Z,4.67
2019-01-31T09:38:38.347Z,4.80
2019-01-31T09:43:01.174Z,4.10
2019-01-31T09:47:31.677Z,5.00
2019-01-31T09:51:43.104Z,4.80
2019-01-31T09:56:07.445Z,4.90
2019-01-31T10:00:26.861Z,4.40
2019-01-31T10:04:30.577Z,4.30
2019-01-31T10:08:54.926Z,4.40
2019-01-31T10:13:16.609Z,4.60
2019-01-31T10:17:50.576Z,4.43
2019-01-31T10:22:05.874Z,4.47
2019-01-31T10:26:31.986Z,4.23
2019-01-31T10:30:55.000Z,4.77
2019-01-31T10:35:01.520Z,5.00
2019-01-31T10:39:10.728Z,4.43
2019-01-31T10:43:32.451Z,4.47
2019-01-31T10:47:50.960Z,5.07
2019-01-31T10:52:31.647Z,4.40
2019-01-31T10:56:56.095Z,4.70
2019-01-31T11:01:19.008Z,3.93
2019-01-31T11:05:43.470Z,4.10
2019-01-31T11:10:12.540Z,4.10
2019-01-31T11:14:21.660Z,4.37
2019-01-31T11:18:33.831Z,6.63
2019-01-31T11:23:01.232Z,3.60
2019-01-31T11:27:19.942Z,3.40
2019-01-31T11:31:41.184Z,3.20
2019-01-31T11:35:56.350Z,3.70
2019-01-31T11:40:14.993Z,3.27
2019-01-31T11:44:39.422Z,2.80
2019-01-31T11:48:48.769Z,2.50
2019-01-31T11:52:57.752Z,3.03
2019-01-31T11:57:15.644Z,2.90
2019-01-31T12:01:19.197Z,2.77
2019-01-31T12:05:22.636Z,2.60
2019-01-31T12:09:26.069Z,2.90
2019-01-31T12:13:29.528Z,2.87
2019-01-31T12:17:33.006Z,3.80
2019-01-31T12:21:36.568Z,2.80
2019-01-31T12:25:40.052Z,2.73
2019-01-31T12:29:43.489Z,2.90
2019-01-31T12:33:46.990Z,2.30
2019-01-31T12:37:50.436Z,2.27
2019-01-31T12:41:53.864Z,2.67
2019-01-31T12:45:57.303Z,2.13
2019-01-31T12:50:00.749Z,2.10
2019-01-31T12:54:05.795Z,2.30
2019-01-31T12:58:10.155Z,2.20
2019-01-31T13:02:13.639Z,2.30
2019-01-31T13:06:17.071Z,2.00
2019-01-31T13:10:20.487Z,1.90
2019-01-31T13:14:23.912Z,2.10
2019-01-31T13:18:27.331Z,2.20
2019-01-31T13:22:30.794Z,2.30
2019-01-31T13:26:34.289Z,2.10
2019-01-31T13:30:37.732Z,2.23
2019-01-31T13:34:41.155Z,2.00
2019-01-31T13:38:44.575Z,2.20
2019-01-31T13:42:48.446Z,2.37
2019-01-31T13:46:51.916Z,2.50
2019-01-31T13:50:55.364Z,2.50
2019-01-31T13:54:58.779Z,2.43
2019-01-31T13:59:02.194Z,2.20
2019-01-31T14:03:06.002Z,2.20
2019-01-31T14:07:09.427Z,2.20
2019-01-31T14:11:12.903Z,2.23
2019-01-31T14:15:32.833Z,2.47
2019-01-31T14:19:27.645Z,2.13
2019-01-31T14:23:31.070Z,2.30
2019-01-31T14:27:34.890Z,2.30
2019-01-31T14:31:38.307Z,2.17
2019-01-31T14:35:41.802Z,2.67
2019-01-31T14:39:45.222Z,2.50
2019-01-31T14:43:48.635Z,2.60
2019-01-31T14:47:52.072Z,2.90
2019-01-31T14:51:55.563Z,2.60
2019-01-31T14:55:59.057Z,2.70
2019-01-31T15:00:02.547Z,2.90
2019-01-31T15:04:05.977Z,2.80
2019-01-31T15:08:09.608Z,2.83
2019-01-31T15:12:13.040Z,2.67
2019-01-31T15:16:16.467Z,3.03
2019-01-31T15:20:35.850Z,3.27
2019-01-31T15:24:30.419Z,2.70
2019-01-31T15:28:33.854Z,2.80
2019-01-31T15:32:37.398Z,5.53
2019-01-31T15:36:40.895Z,4.10
2019-01-31T15:40:46.450Z,4.40
2019-01-31T15:44:49.915Z,4.90
2019-01-31T15:48:53.500Z,3.87
2019-01-31T15:52:57.079Z,4.20
2019-01-31T15:57:00.487Z,3.70
2019-01-31T16:01:05.354Z,3.73
2019-01-31T16:05:18.833Z,5.67
2019-01-31T16:09:14.091Z,5.27
2019-01-31T16:13:17.608Z,5.20
2019-01-31T16:17:21.010Z,5.07
2019-01-31T16:21:24.435Z,4.40
2019-01-31T16:25:27.946Z,5.33
2019-01-31T16:29:31.376Z,5.47
2019-01-31T16:33:34.879Z,4.80
2019-01-31T16:37:38.299Z,4.80
2019-01-31T16:41:41.806Z,4.87
2019-01-31T16:45:46.197Z,6.40
2019-01-31T16:49:49.915Z,5.37
2019-01-31T16:53:53.825Z,5.50
2019-01-31T16:57:57.988Z,6.27
2019-01-31T17:02:01.413Z,6.70
2019-01-31T17:06:04.907Z,6.43
2019-01-31T17:10:08.854Z,7.23
2019-01-31T17:14:12.268Z,7.27
2019-01-31T17:18:15.721Z,8.90
2019-01-31T17:22:19.158Z,10.20
2019-01-31T17:26:22.607Z,12.17
2019-01-31T17:30:28.182Z,10.37
2019-01-31T17:34:31.596Z,10.33
2019-01-31T17:38:35.028Z,10.00
2019-01-31T17:42:38.465Z,9.63
2019-01-31T17:46:41.893Z,9.90
2019-01-31T17:50:45.416Z,10.30
2019-01-31T17:54:48.855Z,11.23
2019-01-31T17:58:52.285Z,12.30
2019-01-31T18:02:55.786Z,11.17
2019-01-31T18:07:00.826Z,10.93
2019-01-31T18:11:04.264Z,10.60
2019-01-31T18:15:09.792Z,13.30
2019-01-31T18:19:13.265Z,13.57
2019-01-31T18:23:16.728Z,11.83
2019-01-31T18:27:20.172Z,13.13
2019-01-31T18:31:23.581Z,12.57
2019-01-31T18:35:27.017Z,12.97
2019-01-31T18:39:30.497Z,13.33
2019-01-31T18:43:33.920Z,11.97
2019-01-31T18:47:37.380Z,11.53
2019-01-31T18:51:40.868Z,11.73
2019-01-31T18:55:44.293Z,10.63
2019-01-31T18:59:47.744Z,11.40
2019-01-31T19:03:51.225Z,12.20
2019-01-31T19:07:55.284Z,12.03
2019-01-31T19:11:58.732Z,13.10
2019-01-31T19:16:05.456Z,12.67
2019-01-31T19:20:25.004Z,12.03
2019-01-31T19:24:28.434Z,11.63
2019-01-31T19:28:31.931Z,12.10
2019-01-31T19:32:35.364Z,11.73
2019-01-31T19:36:38.822Z,11.77
2019-01-31T19:40:43.708Z,11.10
2019-01-31T19:44:47.256Z,11.50
2019-01-31T19:48:50.756Z,11.37
2019-01-31T19:52:54.848Z,14.97
2019-01-31T19:56:58.279Z,14.23
2019-01-31T20:01:01.758Z,11.80
2019-01-31T20:05:06.319Z,11.77
2019-01-31T20:09:11.848Z,11.37
2019-01-31T20:13:15.302Z,12.20
2019-01-31T20:17:20.464Z,13.50
2019-01-31T20:21:23.899Z,11.27
2019-01-31T20:25:29.090Z,12.53
2019-01-31T20:29:32.480Z,13.73
2019-01-31T20:33:35.940Z,11.97
2019-01-31T20:37:39.514Z,10.10
2019-01-31T20:41:53.538Z,11.67
2019-01-31T20:45:48.103Z,11.63
2019-01-31T20:49:51.528Z,11.63
2019-01-31T20:53:54.996Z,11.90
2019-01-31T20:57:59.279Z,11.90
2019-01-31T21:02:02.716Z,10.93
2019-01-31T21:06:06.236Z,12.00
2019-01-31T21:10:11.408Z,15.57
2019-01-31T21:14:15.376Z,14.63
2019-01-31T21:18:18.951Z,14.07
2019-01-31T21:22:22.456Z,13.70
2019-01-31T21:26:25.877Z,14.70
2019-01-31T21:30:35.340Z,14.07
2019-01-31T21:34:38.785Z,13.77
2019-01-31T21:38:42.211Z,13.33
2019-01-31T21:42:45.715Z,13.43
2019-01-31T21:46:49.143Z,12.90
2019-01-31T21:50:52.575Z,13.67
2019-01-31T21:54:56.018Z,11.70
2019-01-31T21:58:59.462Z,12.67
2019-01-31T22:03:03.625Z,12.07
2019-01-31T22:07:07.039Z,12.97
2019-01-31T22:11:10.480Z,12.27
2019-01-31T22:15:19.378Z,12.20
2019-01-31T22:19:22.815Z,11.23
2019-01-31T22:23:26.245Z,11.37
2019-01-31T22:27:29.664Z,11.80
2019-01-31T22:31:33.120Z,11.47
2019-01-31T22:35:36.567Z,11.47
2019-01-31T22:39:40.004Z,11.03
2019-01-31T22:43:43.439Z,10.47
2019-01-31T22:47:47.036Z,11.47
2019-01-31T22:51:50.466Z,11.37
2019-01-31T22:55:53.900Z,11.50
2019-01-31T22:59:57.343Z,12.40
2019-01-31T23:04:00.894Z,11.40
2019-01-31T23:08:04.399Z,11.00
2019-01-31T23:12:07.912Z,10.43
2019-01-31T23:16:11.488Z,10.70
2019-01-31T23:20:15.256Z,9.37
2019-01-31T23:24:18.680Z,9.33
2019-01-31T23:28:22.108Z,10.07
2019-01-31T23:32:25.542Z,10.37
2019-01-31T23:36:28.970Z,10.00
2019-01-31T23:40:32.403Z,9.93
2019-01-31T23:44:35.827Z,10.13
2019-01-31T23:48:39.249Z,10.17
2019-01-31T23:52:42.680Z,11.30
2019-01-31T23:56:46.116Z,10.83
